sensor_id;sensor_type;location;lat;lon;timestamp;temperature;humidity
5059;DHT22;2548;52.050;11.036;2022-07-17T00:01:29;11.70;99.90
5059;DHT22;2548;52.050;11.036;2022-07-17T00:03:56;11.70;99.90
5059;DHT22;2548;52.050;11.036;2022-07-17T00:06:24;11.70;99.90
5059;DHT22;2548;52.050;11.036;2022-07-17T00:08:52;11.60;99.90
5059;DHT22;2548;52.050;11.036;2022-07-17T00:11:20;11.60;99.90
5059;DHT22;2548;52.050;11.036;2022-07-17T00:13:47;11.60;99.90
5059;DHT22;2548;52.050;11.036;2022-07-17T00:16:15;11.50;99.90
5059;DHT22;2548;52.050;11.036;2022-07-17T00:18:42;11.50;99.90
5059;DHT22;2548;52.050;11.036;2022-07-17T00:21:09;11.40;99.90
5059;DHT22;2548;52.050;11.036;2022-07-17T00:23:37;11.40;99.90
5059;DHT22;2548;52.050;11.036;2022-07-17T00:26:06;11.40;99.90
5059;DHT22;2548;52.050;11.036;2022-07-17T00:28:34;11.30;99.90
5059;DHT22;2548;52.050;11.036;2022-07-17T00:31:01;11.20;99.90
5059;DHT22;2548;52.050;11.036;2022-07-17T00:33:29;11.10;99.90
5059;DHT22;2548;52.050;11.036;2022-07-17T00:35:56;11.10;99.90
5059;DHT22;2548;52.050;11.036;2022-07-17T00:38:24;11.00;99.90
5059;DHT22;2548;52.050;11.036;2022-07-17T00:40:53;11.00;99.90
5059;DHT22;2548;52.050;11.036;2022-07-17T00:43:23;11.00;99.90
5059;DHT22;2548;52.050;11.036;2022-07-17T00:45:55;10.80;99.90
5059;DHT22;2548;52.050;11.036;2022-07-17T00:48:23;10.70;99.90
5059;DHT22;2548;52.050;11.036;2022-07-17T00:50:50;10.70;99.90
5059;DHT22;2548;52.050;11.036;2022-07-17T00:53:18;10.60;99.90
5059;DHT22;2548;52.050;11.036;2022-07-17T00:55:47;10.50;99.90
5059;DHT22;2548;52.050;11.036;2022-07-17T00:58:19;10.50;99.90
5059;DHT22;2548;52.050;11.036;2022-07-17T01:00:50;10.40;99.90
5059;DHT22;2548;52.050;11.036;2022-07-17T01:03:19;10.40;99.90
5059;DHT22;2548;52.050;11.036;2022-07-17T01:05:47;10.40;99.90
5059;DHT22;2548;52.050;11.036;2022-07-17T01:08:15;10.40;99.90
5059;DHT22;2548;52.050;11.036;2022-07-17T01:10:42;10.40;99.90
5059;DHT22;2548;52.050;11.036;2022-07-17T01:13:10;10.30;99.90
5059;DHT22;2548;52.050;11.036;2022-07-17T01:15:38;10.20;99.90
5059;DHT22;2548;52.050;11.036;2022-07-17T01:18:09;10.20;99.90
5059;DHT22;2548;52.050;11.036;2022-07-17T01:20:38;10.10;99.90
5059;DHT22;2548;52.050;11.036;2022-07-17T01:23:07;10.10;99.90
5059;DHT22;2548;52.050;11.036;2022-07-17T01:25:35;10.10;99.90
5059;DHT22;2548;52.050;11.036;2022-07-17T01:28:04;10.00;99.90
5059;DHT22;2548;52.050;11.036;2022-07-17T01:30:32;10.00;99.90
5059;DHT22;2548;52.050;11.036;2022-07-17T01:32:59;10.00;99.90
5059;DHT22;2548;52.050;11.036;2022-07-17T01:35:27;9.90;99.90
5059;DHT22;2548;52.050;11.036;2022-07-17T01:37:54;10.00;99.90
5059;DHT22;2548;52.050;11.036;2022-07-17T01:40:23;10.00;99.90
5059;DHT22;2548;52.050;11.036;2022-07-17T01:42:50;10.00;99.90
5059;DHT22;2548;52.050;11.036;2022-07-17T01:45:18;10.00;99.90
5059;DHT22;2548;52.050;11.036;2022-07-17T01:47:46;10.00;99.90
5059;DHT22;2548;52.050;11.036;2022-07-17T01:50:15;10.00;99.90
5059;DHT22;2548;52.050;11.036;2022-07-17T01:52:43;10.00;99.90
5059;DHT22;2548;52.050;11.036;2022-07-17T01:55:13;10.00;99.90
5059;DHT22;2548;52.050;11.036;2022-07-17T01:57:43;10.00;99.90
5059;DHT22;2548;52.050;11.036;2022-07-17T02:00:12;10.10;99.90
5059;DHT22;2548;52.050;11.036;2022-07-17T02:02:41;10.00;99.90
5059;DHT22;2548;52.050;11.036;2022-07-17T02:05:08;10.00;99.90
5059;DHT22;2548;52.050;11.036;2022-07-17T02:07:36;10.00;99.90
5059;DHT22;2548;52.050;11.036;2022-07-17T02:10:07;9.90;99.90
5059;DHT22;2548;52.050;11.036;2022-07-17T02:12:36;9.90;99.90
5059;DHT22;2548;52.050;11.036;2022-07-17T02:15:06;9.90;99.90
5059;DHT22;2548;52.050;11.036;2022-07-17T02:17:37;9.90;99.90
5059;DHT22;2548;52.050;11.036;2022-07-17T02:20:06;9.80;99.90
5059;DHT22;2548;52.050;11.036;2022-07-17T02:22:34;9.80;99.90
5059;DHT22;2548;52.050;11.036;2022-07-17T02:25:02;9.80;99.90
5059;DHT22;2548;52.050;11.036;2022-07-17T02:27:31;9.70;99.90
5059;DHT22;2548;52.050;11.036;2022-07-17T02:30:00;9.70;99.90
5059;DHT22;2548;52.050;11.036;2022-07-17T02:32:29;9.70;99.90
5059;DHT22;2548;52.050;11.036;2022-07-17T02:34:56;9.70;99.90
5059;DHT22;2548;52.050;11.036;2022-07-17T02:37:24;9.60;99.90
5059;DHT22;2548;52.050;11.036;2022-07-17T02:39:51;9.60;99.90
5059;DHT22;2548;52.050;11.036;2022-07-17T02:42:23;9.60;99.90
5059;DHT22;2548;52.050;11.036;2022-07-17T02:44:51;9.60;99.90
5059;DHT22;2548;52.050;11.036;2022-07-17T02:47:22;9.50;99.90
5059;DHT22;2548;52.050;11.036;2022-07-17T02:49:52;9.50;99.90
5059;DHT22;2548;52.050;11.036;2022-07-17T02:52:20;9.50;99.90
5059;DHT22;2548;52.050;11.036;2022-07-17T02:54:48;9.50;99.90
5059;DHT22;2548;52.050;11.036;2022-07-17T02:57:16;9.40;99.90
5059;DHT22;2548;52.050;11.036;2022-07-17T02:59:45;9.40;99.90
5059;DHT22;2548;52.050;11.036;2022-07-17T03:02:13;9.30;99.90
5059;DHT22;2548;52.050;11.036;2022-07-17T03:04:40;9.20;99.90
5059;DHT22;2548;52.050;11.036;2022-07-17T03:07:09;9.20;99.90
5059;DHT22;2548;52.050;11.036;2022-07-17T03:09:36;9.10;99.90
5059;DHT22;2548;52.050;11.036;2022-07-17T03:12:04;9.00;99.90
5059;DHT22;2548;52.050;11.036;2022-07-17T03:14:32;8.90;99.90
5059;DHT22;2548;52.050;11.036;2022-07-17T03:16:59;8.80;99.90
5059;DHT22;2548;52.050;11.036;2022-07-17T03:19:26;8.80;99.90
5059;DHT22;2548;52.050;11.036;2022-07-17T03:21:54;8.80;99.90
5059;DHT22;2548;52.050;11.036;2022-07-17T03:24:23;8.90;99.90
5059;DHT22;2548;52.050;11.036;2022-07-17T03:26:50;9.00;99.90
5059;DHT22;2548;52.050;11.036;2022-07-17T03:29:17;9.00;99.90
5059;DHT22;2548;52.050;11.036;2022-07-17T03:31:45;9.00;99.90
5059;DHT22;2548;52.050;11.036;2022-07-17T03:34:13;9.10;99.90
5059;DHT22;2548;52.050;11.036;2022-07-17T03:36:40;9.10;99.90
5059;DHT22;2548;52.050;11.036;2022-07-17T03:39:08;9.10;99.90
5059;DHT22;2548;52.050;11.036;2022-07-17T03:41:37;9.10;99.90
5059;DHT22;2548;52.050;11.036;2022-07-17T03:44:04;9.20;99.90
5059;DHT22;2548;52.050;11.036;2022-07-17T03:46:35;9.20;99.90
5059;DHT22;2548;52.050;11.036;2022-07-17T03:49:02;9.30;99.90
5059;DHT22;2548;52.050;11.036;2022-07-17T03:51:29;9.20;99.90
5059;DHT22;2548;52.050;11.036;2022-07-17T03:53:57;9.20;99.90
5059;DHT22;2548;52.050;11.036;2022-07-17T03:56:24;9.20;99.90
5059;DHT22;2548;52.050;11.036;2022-07-17T03:58:53;9.20;99.90
5059;DHT22;2548;52.050;11.036;2022-07-17T04:01:21;9.00;99.90
5059;DHT22;2548;52.050;11.036;2022-07-17T04:03:48;8.90;99.90
5059;DHT22;2548;52.050;11.036;2022-07-17T04:06:15;8.80;99.90
5059;DHT22;2548;52.050;11.036;2022-07-17T04:08:43;8.70;99.90
5059;DHT22;2548;52.050;11.036;2022-07-17T04:11:10;8.70;99.90
5059;DHT22;2548;52.050;11.036;2022-07-17T04:13:38;8.70;99.90
5059;DHT22;2548;52.050;11.036;2022-07-17T04:16:07;8.80;99.90
5059;DHT22;2548;52.050;11.036;2022-07-17T04:18:35;8.80;99.90
5059;DHT22;2548;52.050;11.036;2022-07-17T04:21:04;8.80;99.90
5059;DHT22;2548;52.050;11.036;2022-07-17T04:23:32;8.80;99.90
5059;DHT22;2548;52.050;11.036;2022-07-17T04:26:00;8.90;99.90
5059;DHT22;2548;52.050;11.036;2022-07-17T04:28:27;9.00;99.90
5059;DHT22;2548;52.050;11.036;2022-07-17T04:30:55;9.10;99.90
5059;DHT22;2548;52.050;11.036;2022-07-17T04:33:23;9.20;99.90
5059;DHT22;2548;52.050;11.036;2022-07-17T04:35:51;9.20;99.90
5059;DHT22;2548;52.050;11.036;2022-07-17T04:38:19;9.20;99.90
5059;DHT22;2548;52.050;11.036;2022-07-17T04:40:46;9.30;99.90
5059;DHT22;2548;52.050;11.036;2022-07-17T04:43:13;9.30;99.90
5059;DHT22;2548;52.050;11.036;2022-07-17T04:45:41;9.40;99.90
5059;DHT22;2548;52.050;11.036;2022-07-17T04:48:08;9.50;99.90
5059;DHT22;2548;52.050;11.036;2022-07-17T04:50:37;9.50;99.90
5059;DHT22;2548;52.050;11.036;2022-07-17T04:53:04;9.60;99.90
5059;DHT22;2548;52.050;11.036;2022-07-17T04:55:32;9.60;99.90
5059;DHT22;2548;52.050;11.036;2022-07-17T04:57:59;9.70;99.90
5059;DHT22;2548;52.050;11.036;2022-07-17T05:00:26;9.80;99.90
5059;DHT22;2548;52.050;11.036;2022-07-17T05:02:54;10.00;99.90
5059;DHT22;2548;52.050;11.036;2022-07-17T05:05:21;10.10;99.90
5059;DHT22;2548;52.050;11.036;2022-07-17T05:07:50;10.20;99.90
5059;DHT22;2548;52.050;11.036;2022-07-17T05:10:18;10.40;99.90
5059;DHT22;2548;52.050;11.036;2022-07-17T05:12:45;10.50;99.90
5059;DHT22;2548;52.050;11.036;2022-07-17T05:15:13;10.50;99.90
5059;DHT22;2548;52.050;11.036;2022-07-17T05:17:40;10.60;99.90
5059;DHT22;2548;52.050;11.036;2022-07-17T05:20:08;10.70;99.90
5059;DHT22;2548;52.050;11.036;2022-07-17T05:22:35;10.70;99.90
5059;DHT22;2548;52.050;11.036;2022-07-17T05:25:05;10.90;99.90
5059;DHT22;2548;52.050;11.036;2022-07-17T05:27:33;10.90;99.90
5059;DHT22;2548;52.050;11.036;2022-07-17T05:30:00;11.00;99.90
5059;DHT22;2548;52.050;11.036;2022-07-17T05:32:28;11.10;99.90
5059;DHT22;2548;52.050;11.036;2022-07-17T05:34:55;11.20;99.90
5059;DHT22;2548;52.050;11.036;2022-07-17T05:37:22;11.30;99.90
5059;DHT22;2548;52.050;11.036;2022-07-17T05:39:50;11.30;99.90
5059;DHT22;2548;52.050;11.036;2022-07-17T05:42:18;11.40;99.90
5059;DHT22;2548;52.050;11.036;2022-07-17T05:44:46;11.50;99.90
5059;DHT22;2548;52.050;11.036;2022-07-17T05:47:13;11.60;99.90
5059;DHT22;2548;52.050;11.036;2022-07-17T05:49:41;11.70;99.90
5059;DHT22;2548;52.050;11.036;2022-07-17T05:52:08;11.90;99.90
5059;DHT22;2548;52.050;11.036;2022-07-17T05:54:35;12.00;99.90
5059;DHT22;2548;52.050;11.036;2022-07-17T05:57:03;12.20;99.90
5059;DHT22;2548;52.050;11.036;2022-07-17T05:59:31;12.30;99.90
5059;DHT22;2548;52.050;11.036;2022-07-17T06:01:59;12.40;99.90
5059;DHT22;2548;52.050;11.036;2022-07-17T06:04:26;12.60;99.90
5059;DHT22;2548;52.050;11.036;2022-07-17T06:06:54;12.70;99.90
5059;DHT22;2548;52.050;11.036;2022-07-17T06:09:21;12.90;99.90
5059;DHT22;2548;52.050;11.036;2022-07-17T06:11:49;12.90;99.90
5059;DHT22;2548;52.050;11.036;2022-07-17T06:14:16;13.00;99.90
5059;DHT22;2548;52.050;11.036;2022-07-17T06:16:45;13.10;99.90
5059;DHT22;2548;52.050;11.036;2022-07-17T06:19:12;13.20;99.90
5059;DHT22;2548;52.050;11.036;2022-07-17T06:21:39;13.40;99.90
5059;DHT22;2548;52.050;11.036;2022-07-17T06:24:07;13.50;99.90
5059;DHT22;2548;52.050;11.036;2022-07-17T06:26:34;13.60;99.90
5059;DHT22;2548;52.050;11.036;2022-07-17T06:29:02;13.80;99.90
5059;DHT22;2548;52.050;11.036;2022-07-17T06:31:29;13.90;99.90
5059;DHT22;2548;52.050;11.036;2022-07-17T06:33:58;14.10;99.90
5059;DHT22;2548;52.050;11.036;2022-07-17T06:36:25;14.20;99.90
5059;DHT22;2548;52.050;11.036;2022-07-17T06:38:52;14.40;99.90
5059;DHT22;2548;52.050;11.036;2022-07-17T06:41:20;14.50;99.90
5059;DHT22;2548;52.050;11.036;2022-07-17T06:43:47;14.70;99.90
5059;DHT22;2548;52.050;11.036;2022-07-17T06:46:15;14.90;99.90
5059;DHT22;2548;52.050;11.036;2022-07-17T06:48:42;15.10;99.90
5059;DHT22;2548;52.050;11.036;2022-07-17T06:51:11;15.30;99.90
5059;DHT22;2548;52.050;11.036;2022-07-17T06:53:38;15.50;99.90
5059;DHT22;2548;52.050;11.036;2022-07-17T06:56:06;15.70;99.90
5059;DHT22;2548;52.050;11.036;2022-07-17T06:58:33;15.80;99.90
5059;DHT22;2548;52.050;11.036;2022-07-17T07:01:00;15.90;99.90
5059;DHT22;2548;52.050;11.036;2022-07-17T07:03:28;16.00;99.90
5059;DHT22;2548;52.050;11.036;2022-07-17T07:05:55;16.10;99.90
5059;DHT22;2548;52.050;11.036;2022-07-17T07:08:24;16.10;99.90
5059;DHT22;2548;52.050;11.036;2022-07-17T07:10:51;16.20;99.90
5059;DHT22;2548;52.050;11.036;2022-07-17T07:13:19;16.40;99.90
5059;DHT22;2548;52.050;11.036;2022-07-17T07:15:46;16.40;99.90
5059;DHT22;2548;52.050;11.036;2022-07-17T07:18:14;16.50;99.90
5059;DHT22;2548;52.050;11.036;2022-07-17T07:20:41;16.70;99.90
5059;DHT22;2548;52.050;11.036;2022-07-17T07:23:08;16.80;99.90
5059;DHT22;2548;52.050;11.036;2022-07-17T07:25:37;16.80;99.90
5059;DHT22;2548;52.050;11.036;2022-07-17T07:28:05;16.80;99.90
5059;DHT22;2548;52.050;11.036;2022-07-17T07:30:33;16.80;99.90
5059;DHT22;2548;52.050;11.036;2022-07-17T07:33:00;16.90;99.90
5059;DHT22;2548;52.050;11.036;2022-07-17T07:35:28;16.90;99.90
5059;DHT22;2548;52.050;11.036;2022-07-17T07:37:55;16.90;99.90
5059;DHT22;2548;52.050;11.036;2022-07-17T07:40:23;17.10;99.90
5059;DHT22;2548;52.050;11.036;2022-07-17T07:42:51;17.40;99.90
5059;DHT22;2548;52.050;11.036;2022-07-17T07:45:19;17.50;99.90
5059;DHT22;2548;52.050;11.036;2022-07-17T07:47:48;17.50;99.90
5059;DHT22;2548;52.050;11.036;2022-07-17T07:50:17;17.40;99.90
5059;DHT22;2548;52.050;11.036;2022-07-17T07:52:44;17.50;99.90
5059;DHT22;2548;52.050;11.036;2022-07-17T07:55:12;17.60;99.90
5059;DHT22;2548;52.050;11.036;2022-07-17T07:57:40;17.70;99.90
5059;DHT22;2548;52.050;11.036;2022-07-17T08:00:10;17.80;99.90
5059;DHT22;2548;52.050;11.036;2022-07-17T08:02:41;17.90;99.90
5059;DHT22;2548;52.050;11.036;2022-07-17T08:05:08;18.10;99.90
5059;DHT22;2548;52.050;11.036;2022-07-17T08:07:36;18.30;99.90
5059;DHT22;2548;52.050;11.036;2022-07-17T08:10:04;18.50;99.90
5059;DHT22;2548;52.050;11.036;2022-07-17T08:12:32;18.60;99.90
5059;DHT22;2548;52.050;11.036;2022-07-17T08:14:59;18.70;99.90
5059;DHT22;2548;52.050;11.036;2022-07-17T08:17:28;18.60;99.90
5059;DHT22;2548;52.050;11.036;2022-07-17T08:19:55;18.60;99.90
5059;DHT22;2548;52.050;11.036;2022-07-17T08:22:23;18.60;99.90
5059;DHT22;2548;52.050;11.036;2022-07-17T08:24:50;18.70;99.90
5059;DHT22;2548;52.050;11.036;2022-07-17T08:27:18;18.60;99.90
5059;DHT22;2548;52.050;11.036;2022-07-17T08:29:45;18.70;99.90
5059;DHT22;2548;52.050;11.036;2022-07-17T08:32:12;18.70;99.90
5059;DHT22;2548;52.050;11.036;2022-07-17T08:34:41;18.60;99.90
5059;DHT22;2548;52.050;11.036;2022-07-17T08:37:09;18.70;99.90
5059;DHT22;2548;52.050;11.036;2022-07-17T08:39:36;18.90;99.90
5059;DHT22;2548;52.050;11.036;2022-07-17T08:42:05;19.00;99.90
5059;DHT22;2548;52.050;11.036;2022-07-17T08:44:33;19.20;99.90
5059;DHT22;2548;52.050;11.036;2022-07-17T08:47:01;19.40;99.90
5059;DHT22;2548;52.050;11.036;2022-07-17T08:49:29;19.60;99.90
5059;DHT22;2548;52.050;11.036;2022-07-17T08:52:00;19.50;99.90
5059;DHT22;2548;52.050;11.036;2022-07-17T08:54:27;19.30;99.90
5059;DHT22;2548;52.050;11.036;2022-07-17T08:56:56;19.50;99.90
5059;DHT22;2548;52.050;11.036;2022-07-17T08:59:24;19.50;99.90
5059;DHT22;2548;52.050;11.036;2022-07-17T09:01:51;19.50;99.90
5059;DHT22;2548;52.050;11.036;2022-07-17T09:04:18;19.60;99.90
5059;DHT22;2548;52.050;11.036;2022-07-17T09:06:46;19.60;99.90
5059;DHT22;2548;52.050;11.036;2022-07-17T09:09:14;19.60;99.90
5059;DHT22;2548;52.050;11.036;2022-07-17T09:11:44;19.90;99.90
5059;DHT22;2548;52.050;11.036;2022-07-17T09:14:12;20.10;99.90
5059;DHT22;2548;52.050;11.036;2022-07-17T09:16:50;20.40;99.90
5059;DHT22;2548;52.050;11.036;2022-07-17T09:19:29;20.60;99.90
5059;DHT22;2548;52.050;11.036;2022-07-17T09:22:10;20.70;99.90
5059;DHT22;2548;52.050;11.036;2022-07-17T09:24:45;20.80;99.90
5059;DHT22;2548;52.050;11.036;2022-07-17T09:27:15;20.70;99.90
5059;DHT22;2548;52.050;11.036;2022-07-17T09:29:55;20.60;99.90
5059;DHT22;2548;52.050;11.036;2022-07-17T09:32:25;20.90;99.90
5059;DHT22;2548;52.050;11.036;2022-07-17T09:34:55;21.10;99.90
5059;DHT22;2548;52.050;11.036;2022-07-17T09:37:24;21.30;99.90
5059;DHT22;2548;52.050;11.036;2022-07-17T09:39:53;21.40;99.90
5059;DHT22;2548;52.050;11.036;2022-07-17T09:42:25;21.50;99.80
5059;DHT22;2548;52.050;11.036;2022-07-17T09:45:02;21.50;99.90
5059;DHT22;2548;52.050;11.036;2022-07-17T09:47:32;21.50;99.90
5059;DHT22;2548;52.050;11.036;2022-07-17T09:50:02;21.40;99.30
5059;DHT22;2548;52.050;11.036;2022-07-17T09:52:31;21.40;98.80
5059;DHT22;2548;52.050;11.036;2022-07-17T09:55:02;21.50;98.80
5059;DHT22;2548;52.050;11.036;2022-07-17T09:57:31;21.60;98.00
5059;DHT22;2548;52.050;11.036;2022-07-17T10:00:03;21.60;98.20
5059;DHT22;2548;52.050;11.036;2022-07-17T10:02:40;21.60;98.10
5059;DHT22;2548;52.050;11.036;2022-07-17T10:05:07;21.80;98.20
5059;DHT22;2548;52.050;11.036;2022-07-17T10:07:38;21.90;97.50
5059;DHT22;2548;52.050;11.036;2022-07-17T10:10:09;21.90;95.90
5059;DHT22;2548;52.050;11.036;2022-07-17T10:12:38;21.90;96.00
5059;DHT22;2548;52.050;11.036;2022-07-17T10:15:07;21.90;95.10
5059;DHT22;2548;52.050;11.036;2022-07-17T10:17:35;22.00;95.20
5059;DHT22;2548;52.050;11.036;2022-07-17T10:20:03;22.00;95.30
5059;DHT22;2548;52.050;11.036;2022-07-17T10:22:41;22.10;95.40
5059;DHT22;2548;52.050;11.036;2022-07-17T10:25:13;22.30;94.00
5059;DHT22;2548;52.050;11.036;2022-07-17T10:27:49;22.20;94.70
5059;DHT22;2548;52.050;11.036;2022-07-17T10:30:23;22.20;95.30
5059;DHT22;2548;52.050;11.036;2022-07-17T10:32:52;22.20;95.10
5059;DHT22;2548;52.050;11.036;2022-07-17T10:35:19;22.40;94.80
5059;DHT22;2548;52.050;11.036;2022-07-17T10:37:47;22.40;94.00
5059;DHT22;2548;52.050;11.036;2022-07-17T10:40:21;22.50;93.50
5059;DHT22;2548;52.050;11.036;2022-07-17T10:42:55;22.60;94.30
5059;DHT22;2548;52.050;11.036;2022-07-17T10:45:29;22.70;94.20
5059;DHT22;2548;52.050;11.036;2022-07-17T10:48:02;23.10;94.10
5059;DHT22;2548;52.050;11.036;2022-07-17T10:50:31;23.00;92.70
5059;DHT22;2548;52.050;11.036;2022-07-17T10:53:06;23.00;92.70
5059;DHT22;2548;52.050;11.036;2022-07-17T10:55:38;22.90;93.20
5059;DHT22;2548;52.050;11.036;2022-07-17T10:58:14;23.10;93.40
5059;DHT22;2548;52.050;11.036;2022-07-17T11:00:42;23.10;93.10
5059;DHT22;2548;52.050;11.036;2022-07-17T11:03:10;23.20;93.10
5059;DHT22;2548;52.050;11.036;2022-07-17T11:05:39;23.30;93.10
5059;DHT22;2548;52.050;11.036;2022-07-17T11:08:06;23.20;92.50
5059;DHT22;2548;52.050;11.036;2022-07-17T11:10:36;23.00;92.80
5059;DHT22;2548;52.050;11.036;2022-07-17T11:13:09;22.90;92.80
5059;DHT22;2548;52.050;11.036;2022-07-17T11:15:42;22.90;92.00
5059;DHT22;2548;52.050;11.036;2022-07-17T11:18:14;23.10;93.10
5059;DHT22;2548;52.050;11.036;2022-07-17T11:20:49;23.20;92.90
5059;DHT22;2548;52.050;11.036;2022-07-17T11:23:17;23.30;92.70
5059;DHT22;2548;52.050;11.036;2022-07-17T11:25:57;23.40;92.00
5059;DHT22;2548;52.050;11.036;2022-07-17T11:28:33;23.60;91.40
5059;DHT22;2548;52.050;11.036;2022-07-17T11:31:03;23.60;91.60
5059;DHT22;2548;52.050;11.036;2022-07-17T11:33:31;23.70;91.40
5059;DHT22;2548;52.050;11.036;2022-07-17T11:35:58;23.70;91.20
5059;DHT22;2548;52.050;11.036;2022-07-17T11:38:27;23.80;91.50
5059;DHT22;2548;52.050;11.036;2022-07-17T11:40:56;23.70;91.00
5059;DHT22;2548;52.050;11.036;2022-07-17T11:43:24;23.70;91.40
5059;DHT22;2548;52.050;11.036;2022-07-17T11:45:51;23.70;91.00
5059;DHT22;2548;52.050;11.036;2022-07-17T11:48:19;23.90;90.40
5059;DHT22;2548;52.050;11.036;2022-07-17T11:50:53;24.10;90.40
5059;DHT22;2548;52.050;11.036;2022-07-17T11:53:31;24.30;91.50
5059;DHT22;2548;52.050;11.036;2022-07-17T11:56:01;24.50;90.60
5059;DHT22;2548;52.050;11.036;2022-07-17T11:58:39;24.40;90.20
5059;DHT22;2548;52.050;11.036;2022-07-17T12:01:07;24.40;91.10
5059;DHT22;2548;52.050;11.036;2022-07-17T12:03:34;24.30;91.00
5059;DHT22;2548;52.050;11.036;2022-07-17T12:06:02;24.10;89.90
5059;DHT22;2548;52.050;11.036;2022-07-17T12:08:29;24.10;89.10
5059;DHT22;2548;52.050;11.036;2022-07-17T12:11:03;24.40;90.10
5059;DHT22;2548;52.050;11.036;2022-07-17T12:13:41;24.50;88.20
5059;DHT22;2548;52.050;11.036;2022-07-17T12:16:26;24.60;88.60
5059;DHT22;2548;52.050;11.036;2022-07-17T12:18:59;24.60;87.50
5059;DHT22;2548;52.050;11.036;2022-07-17T12:21:31;24.60;88.20
5059;DHT22;2548;52.050;11.036;2022-07-17T12:24:01;24.50;89.10
5059;DHT22;2548;52.050;11.036;2022-07-17T12:26:31;24.60;88.50
5059;DHT22;2548;52.050;11.036;2022-07-17T12:28:59;24.60;87.60
5059;DHT22;2548;52.050;11.036;2022-07-17T12:31:26;24.90;88.40
5059;DHT22;2548;52.050;11.036;2022-07-17T12:33:54;25.10;88.60
5059;DHT22;2548;52.050;11.036;2022-07-17T12:36:23;25.10;88.10
5059;DHT22;2548;52.050;11.036;2022-07-17T12:38:51;25.20;87.50
5059;DHT22;2548;52.050;11.036;2022-07-17T12:41:18;25.10;85.50
5059;DHT22;2548;52.050;11.036;2022-07-17T12:43:47;25.20;84.80
5059;DHT22;2548;52.050;11.036;2022-07-17T12:46:14;25.20;87.20
5059;DHT22;2548;52.050;11.036;2022-07-17T12:48:43;25.20;84.90
5059;DHT22;2548;52.050;11.036;2022-07-17T12:51:12;25.40;87.00
5059;DHT22;2548;52.050;11.036;2022-07-17T12:53:40;25.30;85.80
5059;DHT22;2548;52.050;11.036;2022-07-17T12:56:08;25.50;86.70
5059;DHT22;2548;52.050;11.036;2022-07-17T12:58:36;25.50;85.50
5059;DHT22;2548;52.050;11.036;2022-07-17T13:01:05;25.30;87.10
5059;DHT22;2548;52.050;11.036;2022-07-17T13:03:33;25.20;85.40
5059;DHT22;2548;52.050;11.036;2022-07-17T13:06:00;25.20;84.60
5059;DHT22;2548;52.050;11.036;2022-07-17T13:08:28;25.20;84.80
5059;DHT22;2548;52.050;11.036;2022-07-17T13:10:57;25.20;85.20
5059;DHT22;2548;52.050;11.036;2022-07-17T13:13:25;25.20;86.10
5059;DHT22;2548;52.050;11.036;2022-07-17T13:15:52;25.30;85.30
5059;DHT22;2548;52.050;11.036;2022-07-17T13:18:22;25.50;87.50
5059;DHT22;2548;52.050;11.036;2022-07-17T13:20:49;25.50;85.00
5059;DHT22;2548;52.050;11.036;2022-07-17T13:23:17;25.70;85.60
5059;DHT22;2548;52.050;11.036;2022-07-17T13:25:45;25.70;85.60
5059;DHT22;2548;52.050;11.036;2022-07-17T13:28:12;25.70;85.90
5059;DHT22;2548;52.050;11.036;2022-07-17T13:30:40;25.60;85.10
5059;DHT22;2548;52.050;11.036;2022-07-17T13:33:07;25.70;85.10
5059;DHT22;2548;52.050;11.036;2022-07-17T13:35:36;25.80;84.90
5059;DHT22;2548;52.050;11.036;2022-07-17T13:38:04;25.90;84.30
5059;DHT22;2548;52.050;11.036;2022-07-17T13:40:33;26.00;84.70
5059;DHT22;2548;52.050;11.036;2022-07-17T13:43:02;26.00;84.00
5059;DHT22;2548;52.050;11.036;2022-07-17T13:45:30;26.00;80.80
5059;DHT22;2548;52.050;11.036;2022-07-17T13:47:57;26.10;83.20
5059;DHT22;2548;52.050;11.036;2022-07-17T13:50:25;25.90;82.70
5059;DHT22;2548;52.050;11.036;2022-07-17T13:52:54;25.90;81.90
5059;DHT22;2548;52.050;11.036;2022-07-17T13:55:22;26.00;80.30
5059;DHT22;2548;52.050;11.036;2022-07-17T13:57:49;26.20;82.30
5059;DHT22;2548;52.050;11.036;2022-07-17T14:00:16;26.40;83.20
5059;DHT22;2548;52.050;11.036;2022-07-17T14:02:44;26.40;79.80
5059;DHT22;2548;52.050;11.036;2022-07-17T14:05:12;26.30;81.50
5059;DHT22;2548;52.050;11.036;2022-07-17T14:07:39;26.30;81.80
5059;DHT22;2548;52.050;11.036;2022-07-17T14:10:09;26.40;82.20
5059;DHT22;2548;52.050;11.036;2022-07-17T14:12:37;26.40;81.70
5059;DHT22;2548;52.050;11.036;2022-07-17T14:15:05;26.60;81.50
5059;DHT22;2548;52.050;11.036;2022-07-17T14:17:33;26.40;81.20
5059;DHT22;2548;52.050;11.036;2022-07-17T14:20:01;26.40;81.60
5059;DHT22;2548;52.050;11.036;2022-07-17T14:22:28;26.30;80.60
5059;DHT22;2548;52.050;11.036;2022-07-17T14:24:56;26.30;78.00
5059;DHT22;2548;52.050;11.036;2022-07-17T14:27:24;26.30;78.00
5059;DHT22;2548;52.050;11.036;2022-07-17T14:29:52;26.00;78.00
5059;DHT22;2548;52.050;11.036;2022-07-17T14:32:19;26.10;80.50
5059;DHT22;2548;52.050;11.036;2022-07-17T14:34:46;26.00;80.90
5059;DHT22;2548;52.050;11.036;2022-07-17T14:37:14;26.10;81.00
5059;DHT22;2548;52.050;11.036;2022-07-17T14:39:41;26.30;80.60
5059;DHT22;2548;52.050;11.036;2022-07-17T14:42:09;26.40;80.50
5059;DHT22;2548;52.050;11.036;2022-07-17T14:44:38;26.60;79.10
5059;DHT22;2548;52.050;11.036;2022-07-17T14:47:07;26.70;77.40
5059;DHT22;2548;52.050;11.036;2022-07-17T14:49:35;26.60;77.50
5059;DHT22;2548;52.050;11.036;2022-07-17T14:52:03;26.40;77.90
5059;DHT22;2548;52.050;11.036;2022-07-17T14:54:31;26.30;78.00
5059;DHT22;2548;52.050;11.036;2022-07-17T14:56:58;26.40;78.40
5059;DHT22;2548;52.050;11.036;2022-07-17T14:59:26;26.60;78.00
5059;DHT22;2548;52.050;11.036;2022-07-17T15:01:55;26.50;76.50
5059;DHT22;2548;52.050;11.036;2022-07-17T15:04:23;26.40;77.30
5059;DHT22;2548;52.050;11.036;2022-07-17T15:06:50;26.20;75.30
5059;DHT22;2548;52.050;11.036;2022-07-17T15:09:18;25.90;75.10
5059;DHT22;2548;52.050;11.036;2022-07-17T15:11:47;25.90;77.10
5059;DHT22;2548;52.050;11.036;2022-07-17T15:14:14;25.90;73.70
5059;DHT22;2548;52.050;11.036;2022-07-17T15:16:42;26.10;74.70
5059;DHT22;2548;52.050;11.036;2022-07-17T15:19:11;26.30;75.70
5059;DHT22;2548;52.050;11.036;2022-07-17T15:21:39;26.20;75.10
5059;DHT22;2548;52.050;11.036;2022-07-17T15:24:07;26.30;76.40
5059;DHT22;2548;52.050;11.036;2022-07-17T15:26:34;26.40;76.50
5059;DHT22;2548;52.050;11.036;2022-07-17T15:29:02;26.50;76.50
5059;DHT22;2548;52.050;11.036;2022-07-17T15:31:30;26.60;75.80
5059;DHT22;2548;52.050;11.036;2022-07-17T15:33:58;26.40;74.80
5059;DHT22;2548;52.050;11.036;2022-07-17T15:36:27;26.30;76.40
5059;DHT22;2548;52.050;11.036;2022-07-17T15:38:57;26.30;75.80
5059;DHT22;2548;52.050;11.036;2022-07-17T15:41:26;26.30;77.10
5059;DHT22;2548;52.050;11.036;2022-07-17T15:43:54;26.30;78.30
5059;DHT22;2548;52.050;11.036;2022-07-17T15:46:23;26.50;78.70
5059;DHT22;2548;52.050;11.036;2022-07-17T15:48:50;26.70;76.50
5059;DHT22;2548;52.050;11.036;2022-07-17T15:51:19;26.60;76.20
5059;DHT22;2548;52.050;11.036;2022-07-17T15:53:48;26.40;73.70
5059;DHT22;2548;52.050;11.036;2022-07-17T15:56:15;26.30;74.00
5059;DHT22;2548;52.050;11.036;2022-07-17T15:58:43;26.20;75.70